| time (UTC) | temp F | wind direction | speed MPH | gust MPH | rain 1hr in | rain 24hr in | rain mn in | humidity % | barometer mb |
| 20260510033053 | 76 | 221 | 5.0 | 11.0 | 0.00 | 0.00 | 0.00 | 56 | 1010.8 |
| 20260510031554 | 77 | 222 | 5.0 | 10.0 | 0.00 | 0.00 | 0.00 | 53 | 1010.7 |
| 20260510030048 | 78 | 211 | 3.0 | 8.0 | 0.00 | 0.00 | 0.00 | 52 | 1010.7 |
| 20260510024550 | 78 | 233 | 4.0 | 10.0 | 0.00 | 0.00 | 0.00 | 50 | 1010.6 |
| 20260510023048 | 79 | 193 | 5.0 | 10.0 | 0.00 | 0.00 | 0.00 | 49 | 1010.3 |
| 20260510021544 | 79 | 231 | 6.0 | 11.0 | 0.00 | 0.00 | 0.00 | 49 | 1010.0 |
| 20260510020051 | 79 | 226 | 5.0 | 9.0 | 0.00 | 0.00 | 0.00 | 48 | 1009.8 |
| 20260510014549 | 80 | 224 | 3.0 | 6.0 | 0.00 | 0.00 | 0.00 | 49 | 1009.7 |
| 20260510013051 | 81 | 204 | 2.0 | 6.0 | 0.00 | 0.00 | 0.00 | 48 | 1009.6 |
| 20260510011552 | 82 | 211 | 2.0 | 3.0 | 0.00 | 0.00 | 0.00 | 48 | 1009.6 |
| 20260510010054 | 85 | 217 | 2.0 | 3.0 | 0.00 | 0.00 | 0.00 | 45 | 1009.5 |
| 20260510004548 | 86 | 232 | 2.0 | 8.0 | 0.00 | 0.00 | 0.00 | 43 | 1009.4 |
| 20260510003057 | 88 | 235 | 3.0 | 8.0 | 0.00 | 0.00 | 0.00 | 40 | 1009.4 |
| 20260510001554 | 89 | 243 | 5.0 | 9.0 | 0.00 | 0.00 | 0.00 | 39 | 1009.4 |
| 20260510000100 | 89 | 218 | 6.0 | 9.0 | 0.00 | 0.00 | 0.00 | 37 | 1009.4 |
| 20260509234548 | 89 | 221 | 4.0 | 9.0 | 0.00 | 0.00 | 0.00 | 37 | 1009.4 |
| 20260509233054 | 89 | 234 | 6.0 | 11.0 | 0.00 | 0.00 | 0.00 | 34 | 1009.5 |
| 20260509231557 | 89 | 226 | 6.0 | 11.0 | 0.00 | 0.00 | 0.00 | 35 | 1009.4 |
| 20260509230048 | 90 | 259 | 7.0 | 10.0 | 0.00 | 0.00 | 0.00 | 34 | 1009.5 |
| 20260509224557 | 90 | 253 | 9.0 | 12.0 | 0.00 | 0.00 | 0.00 | 34 | 1009.5 |
| 20260509223049 | 89 | 205 | 6.0 | 11.0 | 0.00 | 0.00 | 0.00 | 34 | 1009.5 |
| 20260509221602 | 89 | 236 | 6.0 | 13.0 | 0.00 | 0.00 | 0.00 | 32 | 1009.5 |
| 20260509220050 | 90 | 159 | 6.0 | 12.0 | 0.00 | 0.00 | 0.00 | 36 | 1009.7 |
| 20260509214553 | 89 | 221 | 6.0 | 16.0 | 0.00 | 0.00 | 0.00 | 36 | 1009.8 |
| 20260509213049 | 89 | 226 | 6.0 | 14.0 | 0.00 | 0.00 | 0.00 | 37 | 1009.8 |
| 20260509211555 | 89 | 250 | 8.0 | 16.0 | 0.00 | 0.00 | 0.00 | 38 | 1010.0 |
| 20260509210058 | 89 | 209 | 6.0 | 14.0 | 0.00 | 0.00 | 0.00 | 37 | 1010.4 |
| 20260509204558 | 89 | 176 | 8.0 | 14.0 | 0.00 | 0.00 | 0.00 | 38 | 1010.5 |
| 20260509203049 | 88 | 249 | 7.0 | 14.0 | 0.00 | 0.00 | 0.00 | 41 | 1010.8 |
| 20260509201559 | 88 | 217 | 5.0 | 13.0 | 0.00 | 0.00 | 0.00 | 39 | 1011.2 |
| 20260509200058 | 88 | 170 | 4.0 | 13.0 | 0.00 | 0.00 | 0.00 | 41 | 1011.2 |
| 20260509194550 | 88 | 239 | 8.0 | 13.0 | 0.00 | 0.00 | 0.00 | 40 | 1011.2 |
| 20260509193046 | 87 | 247 | 5.0 | 14.0 | 0.00 | 0.00 | 0.00 | 44 | 1011.6 |
| 20260509191548 | 87 | 231 | 7.0 | 12.0 | 0.00 | 0.00 | 0.00 | 43 | 1011.7 |
| 20260509190101 | 86 | 262 | 8.0 | 13.0 | 0.00 | 0.00 | 0.00 | 45 | 1011.9 |
| 20260509184548 | 85 | 210 | 5.0 | 13.0 | 0.00 | 0.00 | 0.00 | 46 | 1012.0 |
| 20260509183049 | 85 | 224 | 6.0 | 13.0 | 0.00 | 0.00 | 0.00 | 46 | 1012.2 |
| 20260509181547 | 84 | 274 | 7.0 | 11.0 | 0.00 | 0.00 | 0.00 | 49 | 1012.5 |
| 20260509180051 | 83 | 233 | 7.0 | 12.0 | 0.00 | 0.00 | 0.00 | 48 | 1012.7 |
| 20260509174550 | 83 | 237 | 5.0 | 10.0 | 0.00 | 0.00 | 0.00 | 55 | 1012.8 |
| 20260509173049 | 82 | 248 | 5.0 | 11.0 | 0.00 | 0.00 | 0.00 | 55 | 1013.0 |
| 20260509171554 | 82 | 229 | 4.0 | 13.0 | 0.00 | 0.00 | 0.00 | 57 | 1013.2 |
| 20260509170142 | 81 | 207 | 6.0 | 12.0 | 0.00 | 0.00 | 0.00 | 58 | 1013.4 |
| 20260509164557 | 80 | 266 | 6.0 | 11.0 | 0.00 | 0.00 | 0.00 | 62 | 1013.4 |
| 20260509163051 | 79 | 252 | 5.0 | 11.0 | 0.00 | 0.00 | 0.00 | 64 | 1013.4 |
| 20260509161556 | 78 | 250 | 7.0 | 12.0 | 0.00 | 0.00 | 0.00 | 65 | 1013.4 |
| 20260509160047 | 77 | 299 | 7.0 | 11.0 | 0.00 | 0.00 | 0.00 | 67 | 1013.3 |
| 20260509154548 | 76 | 274 | 8.0 | 13.0 | 0.00 | 0.00 | 0.00 | 71 | 1013.4 |
| 20260509153055 | 75 | 296 | 6.0 | 12.0 | 0.00 | 0.00 | 0.00 | 76 | 1013.5 |
| 20260509151552 | 73 | 288 | 7.0 | 11.0 | 0.00 | 0.00 | 0.00 | 79 | 1013.5 |
| 20260509150051 | 72 | 281 | 5.0 | 9.0 | 0.00 | 0.00 | 0.00 | 83 | 1013.6 |
| 20260509144550 | 70 | 281 | 4.0 | 8.0 | 0.00 | 0.00 | 0.00 | 87 | 1013.8 |
| 20260509143055 | 68 | 319 | 3.0 | 8.0 | 0.00 | 0.00 | 0.00 | 91 | 1013.9 |
| 20260509141549 | 66 | 274 | 5.0 | 8.0 | 0.00 | 0.00 | 0.00 | 93 | 1013.9 |
| 20260509134624 | 65 | 314 | 4.0 | 7.0 | 0.00 | 0.00 | 0.00 | 95 | 1014.0 |
| 20260509133057 | 64 | 285 | 3.0 | 6.0 | 0.00 | 0.00 | 0.00 | 96 | 1013.8 |
| 20260509131553 | 64 | 293 | 4.0 | 7.0 | 0.00 | 0.00 | 0.00 | 96 | 1013.6 |
| 20260509130048 | 63 | 309 | 2.0 | 5.0 | 0.00 | 0.00 | 0.00 | 96 | 1013.6 |
| 20260509124545 | 62 | 260 | 2.0 | 3.0 | 0.00 | 0.00 | 0.00 | 95 | 1013.4 |
| 20260509123052 | 63 | 260 | 2.0 | 3.0 | 0.00 | 0.00 | 0.00 | 95 | 1013.3 |
| 20260509121553 | 63 | 260 | 0.0 | 3.0 | 0.00 | 0.00 | 0.00 | 94 | 1013.5 |
| 20260509120052 | 63 | 254 | 2.0 | 5.0 | 0.00 | 0.00 | 0.00 | 94 | 1013.2 |
| 20260509114548 | 64 | 266 | 4.0 | 8.0 | 0.00 | 0.00 | 0.00 | 94 | 1013.0 |
| 20260509113053 | 63 | 241 | 2.0 | 4.0 | 0.00 | 0.00 | 0.00 | 93 | 1012.9 |
| 20260509111551 | 64 | 225 | 3.0 | 6.0 | 0.00 | 0.00 | 0.00 | 93 | 1012.4 |
| 20260509110052 | 64 | 207 | 3.0 | 6.0 | 0.00 | 0.00 | 0.00 | 93 | 1012.3 |
| 20260509104552 | 64 | 0 | 0.0 | 0.0 | 0.00 | 0.00 | 0.00 | 92 | 1012.1 |
| 20260509103053 | 64 | 0 | 0.0 | 0.0 | 0.00 | 0.00 | 0.00 | 91 | 1012.3 |
| 20260509101559 | 65 | 178 | 1.0 | 3.0 | 0.00 | 0.00 | 0.00 | 90 | 1012.3 |
| 20260509100051 | 65 | 165 | 0.0 | 5.0 | 0.00 | 0.00 | 0.00 | 89 | 1012.6 |
| 20260509094548 | 65 | 170 | 2.0 | 6.0 | 0.00 | 0.00 | 0.00 | 88 | 1012.6 |
| 20260509093059 | 66 | 155 | 4.0 | 8.0 | 0.00 | 0.00 | 0.00 | 88 | 1012.4 |
| 20260509091556 | 66 | 150 | 6.0 | 10.0 | 0.00 | 0.00 | 0.00 | 89 | 1012.4 |
| 20260509090052 | 66 | 133 | 4.0 | 9.0 | 0.00 | 0.00 | 0.00 | 90 | 1012.7 |
| 20260509084550 | 66 | 154 | 6.0 | 13.0 | 0.00 | 0.00 | 0.00 | 92 | 1013.0 |
| 20260509083052 | 67 | 136 | 6.0 | 11.0 | 0.00 | 0.00 | 0.00 | 94 | 1013.3 |
| 20260509081551 | 67 | 104 | 5.0 | 9.0 | 0.00 | 0.00 | 0.00 | 95 | 1013.7 |
| 20260509080048 | 66 | 141 | 3.0 | 7.0 | 0.00 | 0.00 | 0.00 | 95 | 1013.5 |
| 20260509074558 | 66 | 112 | 5.0 | 12.0 | 0.00 | 0.00 | 0.00 | 95 | 1013.5 |
| 20260509073048 | 66 | 78 | 7.0 | 15.0 | 0.00 | 0.00 | 0.00 | 95 | 1013.7 |
| 20260509071543 | 65 | 0 | 0.0 | 0.0 | 0.00 | 0.00 | 0.00 | 94 | 1012.7 |
| 20260509070045 | 65 | 0 | 0.0 | 3.0 | 0.00 | 0.00 | 0.00 | 93 | 1012.6 |
| 20260509064558 | 66 | 41 | 0.0 | 2.0 | 0.00 | 0.01 | 0.00 | 93 | 1012.8 |
| 20260509063048 | 67 | 0 | 0.0 | 7.0 | 0.00 | 0.01 | 0.00 | 93 | 1012.6 |
| 20260509061551 | 67 | 255 | 4.0 | 20.0 | 0.00 | 0.01 | 0.00 | 95 | 1012.0 |
| 20260509060050 | 67 | 0 | 1.0 | 3.0 | 0.00 | 0.01 | 0.00 | 93 | 1011.5 |
| 20260509054548 | 67 | 0 | 0.0 | 3.0 | 0.00 | 0.03 | 0.00 | 93 | 1011.3 |
| 20260509053049 | 67 | 0 | 0.0 | 3.0 | 0.00 | 0.03 | 0.00 | 92 | 1011.2 |
| 20260509051551 | 67 | 0 | 0.0 | 3.0 | 0.00 | 0.03 | 0.00 | 92 | 1011.3 |
| 20260509050050 | 67 | 0 | 0.0 | 1.0 | 0.00 | 0.03 | 0.00 | 92 | 1011.3 |
| 20260509044550 | 68 | 0 | 0.0 | 0.0 | 0.00 | 0.03 | 0.03 | 91 | 1011.5 |
| 20260509043056 | 68 | 0 | 0.0 | 1.0 | 0.00 | 0.03 | 0.03 | 90 | 1011.7 |
| 20260509041548 | 69 | 242 | 2.0 | 7.0 | 0.00 | 0.03 | 0.03 | 90 | 1011.7 |
| 20260509040054 | 69 | 257 | 1.0 | 6.0 | 0.00 | 0.03 | 0.03 | 88 | 1011.5 |
| 20260509034552 | 70 | 260 | 3.0 | 8.0 | 0.00 | 0.03 | 0.03 | 87 | 1011.4 |